createdAt,value
2023-02-02T00:02:05.883Z,3.63
2023-02-02T00:12:09.125Z,3.25
2023-02-02T00:22:12.453Z,4.35
2023-02-02T00:32:14.407Z,2.67
2023-02-02T00:42:18.059Z,3.17
2023-02-02T00:52:20.100Z,2.78
2023-02-02T01:02:23.481Z,3.13
2023-02-02T01:12:25.771Z,3.50
2023-02-02T01:22:29.102Z,2.40
2023-02-02T01:32:31.097Z,2.10
2023-02-02T01:42:34.408Z,3.38
2023-02-02T01:52:37.449Z,2.70
2023-02-02T02:02:43.522Z,3.28
2023-02-02T02:12:47.186Z,2.75
2023-02-02T02:23:07.976Z,2.40
2023-02-02T02:33:15.382Z,4.28
2023-02-02T02:43:21.378Z,2.40
2023-02-02T02:53:25.013Z,3.58
2023-02-02T03:03:39.918Z,2.65
2023-02-02T03:13:44.330Z,3.95
2023-02-02T03:23:46.259Z,2.90
2023-02-02T03:33:49.598Z,2.25
2023-02-02T03:43:51.518Z,2.65
2023-02-02T03:53:54.820Z,2.30
2023-02-02T04:03:56.867Z,3.60
2023-02-02T04:14:00.157Z,2.10
2023-02-02T04:24:02.089Z,2.75
2023-02-02T04:34:05.394Z,3.45
2023-02-02T04:44:13.509Z,2.13
2023-02-02T04:54:16.793Z,2.92
2023-02-02T05:04:18.786Z,2.70
2023-02-02T05:14:22.233Z,2.97
2023-02-02T05:24:24.166Z,2.28
2023-02-02T05:34:27.549Z,5.35
2023-02-02T05:44:29.526Z,2.45
2023-02-02T05:54:32.885Z,2.75
2023-02-02T06:04:34.819Z,2.05
2023-02-02T06:14:38.216Z,2.17
2023-02-02T06:24:40.138Z,2.35
2023-02-02T06:34:43.448Z,2.92
2023-02-02T06:44:45.384Z,2.83
2023-02-02T06:54:48.749Z,3.38
2023-02-02T07:04:51.624Z,2.00
2023-02-02T07:14:54.980Z,1.98
2023-02-02T07:24:56.992Z,1.80
2023-02-02T07:35:00.348Z,2.25
2023-02-02T07:45:35.870Z,1.88
2023-02-02T07:55:25.744Z,2.35
2023-02-02T08:05:28.385Z,2.10
2023-02-02T08:15:31.750Z,2.55
2023-02-02T08:25:33.744Z,1.90
2023-02-02T08:35:40.885Z,2.28
2023-02-02T08:46:02.508Z,2.28
2023-02-02T08:56:10.149Z,3.17
2023-02-02T09:06:15.015Z,2.22
2023-02-02T09:16:19.290Z,2.25
2023-02-02T09:26:23.321Z,1.98
2023-02-02T09:36:26.785Z,2.08
2023-02-02T09:46:41.233Z,1.90
2023-02-02T09:56:47.892Z,1.25
2023-02-02T10:06:52.652Z,1.55
2023-02-02T10:17:00.411Z,1.50
2023-02-02T10:27:04.880Z,1.45
2023-02-02T10:37:31.632Z,1.73
2023-02-02T10:47:34.740Z,1.33
2023-02-02T10:57:52.123Z,1.27
2023-02-02T11:07:54.531Z,1.20
2023-02-02T11:18:13.569Z,2.05
2023-02-02T11:28:20.724Z,1.87
2023-02-02T11:38:24.682Z,2.13
2023-02-02T11:48:30.449Z,1.45
2023-02-02T11:58:44.801Z,1.48
2023-02-02T12:08:47.228Z,1.60
2023-02-02T12:19:00.732Z,1.90
2023-02-02T12:29:23.539Z,1.90
2023-02-02T12:39:33.658Z,1.70
2023-02-02T13:00:13.435Z,2.10
2023-02-02T13:10:24.876Z,1.70
2023-02-02T13:20:36.942Z,1.40
2023-02-02T13:30:40.100Z,2.60
2023-02-02T13:40:44.346Z,2.28
2023-02-02T13:51:04.402Z,2.35
2023-02-02T14:01:11.070Z,1.10
2023-02-02T14:11:21.783Z,1.30
2023-02-02T14:21:59.570Z,1.70
2023-02-02T14:32:03.986Z,1.20
2023-02-02T14:53:08.541Z,1.70
2023-02-02T15:03:49.977Z,1.33
2023-02-02T15:14:09.985Z,1.40
2023-02-02T15:24:21.517Z,1.40
2023-02-02T15:34:28.101Z,1.30
2023-02-02T15:44:31.377Z,1.40
2023-02-02T15:54:35.857Z,1.13
2023-02-02T16:04:55.476Z,1.90
2023-02-02T16:15:00.579Z,1.63
2023-02-02T16:35:56.666Z,1.60
2023-02-02T16:46:03.387Z,1.20
2023-02-02T16:56:07.270Z,1.48
2023-02-02T17:06:10.843Z,1.33
2023-02-02T17:16:15.787Z,1.50
2023-02-02T17:26:19.250Z,1.98
2023-02-02T17:36:42.737Z,1.40
2023-02-02T17:46:46.140Z,1.00
2023-02-02T17:57:26.691Z,0.88
2023-02-02T18:07:30.004Z,1.30
2023-02-02T18:17:34.042Z,1.02
2023-02-02T18:27:38.074Z,1.13
2023-02-02T18:37:46.059Z,1.00
2023-02-02T18:58:37.695Z,0.82
2023-02-02T19:08:39.709Z,1.33
2023-02-02T19:18:43.034Z,0.80
2023-02-02T19:28:45.017Z,1.08
2023-02-02T19:38:50.329Z,1.10
2023-02-02T19:48:55.901Z,1.35
2023-02-02T19:58:59.437Z,1.00
2023-02-02T20:09:02.023Z,1.25
2023-02-02T20:19:16.697Z,1.27
2023-02-02T20:29:22.194Z,1.05
2023-02-02T20:39:33.536Z,1.55
2023-02-02T20:49:37.797Z,1.70
2023-02-02T20:59:41.091Z,1.70
2023-02-02T21:09:43.586Z,1.70
2023-02-02T21:19:46.932Z,1.10
2023-02-02T21:29:48.855Z,1.15
2023-02-02T21:39:57.883Z,2.10
2023-02-02T21:50:10.369Z,1.20
2023-02-02T22:00:25.195Z,1.13
2023-02-02T22:10:38.113Z,0.93
2023-02-02T22:20:42.574Z,1.02
2023-02-02T22:30:44.709Z,1.27
2023-02-02T22:40:49.109Z,1.05
2023-02-02T22:50:51.070Z,1.10
2023-02-02T23:00:54.414Z,1.00
2023-02-02T23:10:56.365Z,1.20
2023-02-02T23:20:59.680Z,1.55
2023-02-02T23:31:01.687Z,1.70
2023-02-02T23:41:05.354Z,1.45
2023-02-02T23:51:07.286Z,1.85
